sensor_id;sensor_type;location;lat;lon;timestamp;P1;durP1;ratioP1;P2;durP2;ratioP2
45684;SDS011;46836;48.388;16.210;2023-07-24T00:00:01;8.40;;;5.10;;
45684;SDS011;46836;48.388;16.210;2023-07-24T00:02:28;8.13;;;6.23;;
45684;SDS011;46836;48.388;16.210;2023-07-24T00:04:55;7.17;;;6.10;;
45684;SDS011;46836;48.388;16.210;2023-07-24T00:07:22;6.50;;;5.73;;
45684;SDS011;46836;48.388;16.210;2023-07-24T00:09:51;8.10;;;6.07;;
45684;SDS011;46836;48.388;16.210;2023-07-24T00:12:19;8.60;;;5.57;;
45684;SDS011;46836;48.388;16.210;2023-07-24T00:14:46;6.37;;;5.37;;
45684;SDS011;46836;48.388;16.210;2023-07-24T00:17:12;6.77;;;5.60;;
45684;SDS011;46836;48.388;16.210;2023-07-24T00:19:40;6.57;;;5.87;;
45684;SDS011;46836;48.388;16.210;2023-07-24T00:22:07;5.60;;;5.10;;
45684;SDS011;46836;48.388;16.210;2023-07-24T00:24:34;7.37;;;5.40;;
45684;SDS011;46836;48.388;16.210;2023-07-24T00:27:01;7.80;;;5.80;;
45684;SDS011;46836;48.388;16.210;2023-07-24T00:29:29;5.80;;;5.10;;
45684;SDS011;46836;48.388;16.210;2023-07-24T00:31:56;6.87;;;5.63;;
45684;SDS011;46836;48.388;16.210;2023-07-24T00:34:23;7.60;;;5.87;;
45684;SDS011;46836;48.388;16.210;2023-07-24T00:36:53;6.43;;;5.80;;
45684;SDS011;46836;48.388;16.210;2023-07-24T00:39:20;7.10;;;6.27;;
45684;SDS011;46836;48.388;16.210;2023-07-24T00:41:47;7.20;;;6.17;;
45684;SDS011;46836;48.388;16.210;2023-07-24T00:44:14;6.67;;;5.27;;
45684;SDS011;46836;48.388;16.210;2023-07-24T00:46:41;10.63;;;6.17;;
45684;SDS011;46836;48.388;16.210;2023-07-24T00:49:08;6.10;;;5.20;;
45684;SDS011;46836;48.388;16.210;2023-07-24T00:51:36;6.83;;;6.00;;
45684;SDS011;46836;48.388;16.210;2023-07-24T00:54:03;6.63;;;5.40;;
45684;SDS011;46836;48.388;16.210;2023-07-24T00:56:32;8.70;;;5.90;;
45684;SDS011;46836;48.388;16.210;2023-07-24T00:59:00;7.00;;;5.47;;
45684;SDS011;46836;48.388;16.210;2023-07-24T01:01:28;6.40;;;5.47;;
45684;SDS011;46836;48.388;16.210;2023-07-24T01:03:56;6.70;;;5.70;;
45684;SDS011;46836;48.388;16.210;2023-07-24T01:06:24;6.73;;;5.80;;
45684;SDS011;46836;48.388;16.210;2023-07-24T01:08:51;7.30;;;5.50;;
45684;SDS011;46836;48.388;16.210;2023-07-24T01:11:24;6.13;;;5.43;;
45684;SDS011;46836;48.388;16.210;2023-07-24T01:16:32;7.20;;;5.40;;
45684;SDS011;46836;48.388;16.210;2023-07-24T01:19:04;7.13;;;4.60;;
45684;SDS011;46836;48.388;16.210;2023-07-24T01:25:33;9.17;;;5.70;;
45684;SDS011;46836;48.388;16.210;2023-07-24T01:27:52;6.13;;;4.67;;
45684;SDS011;46836;48.388;16.210;2023-07-24T01:30:19;9.43;;;6.27;;
45684;SDS011;46836;48.388;16.210;2023-07-24T01:32:47;8.60;;;6.20;;
45684;SDS011;46836;48.388;16.210;2023-07-24T01:35:14;6.67;;;5.97;;
45684;SDS011;46836;48.388;16.210;2023-07-24T01:37:42;6.60;;;5.70;;
45684;SDS011;46836;48.388;16.210;2023-07-24T01:40:10;6.67;;;5.77;;
45684;SDS011;46836;48.388;16.210;2023-07-24T01:42:38;8.23;;;5.70;;
45684;SDS011;46836;48.388;16.210;2023-07-24T01:45:06;8.97;;;5.90;;
45684;SDS011;46836;48.388;16.210;2023-07-24T01:47:34;7.73;;;6.27;;
45684;SDS011;46836;48.388;16.210;2023-07-24T01:50:01;7.13;;;5.70;;
45684;SDS011;46836;48.388;16.210;2023-07-24T01:52:28;13.80;;;5.40;;
45684;SDS011;46836;48.388;16.210;2023-07-24T01:54:55;5.93;;;5.33;;
45684;SDS011;46836;48.388;16.210;2023-07-24T01:57:22;9.83;;;5.90;;
45684;SDS011;46836;48.388;16.210;2023-07-24T01:59:49;6.93;;;5.60;;
45684;SDS011;46836;48.388;16.210;2023-07-24T02:02:16;9.07;;;6.17;;
45684;SDS011;46836;48.388;16.210;2023-07-24T02:04:43;7.23;;;6.50;;
45684;SDS011;46836;48.388;16.210;2023-07-24T02:07:10;6.13;;;5.53;;
45684;SDS011;46836;48.388;16.210;2023-07-24T02:09:37;6.50;;;5.80;;
45684;SDS011;46836;48.388;16.210;2023-07-24T02:12:04;6.70;;;6.00;;
45684;SDS011;46836;48.388;16.210;2023-07-24T02:14:31;7.23;;;6.37;;
45684;SDS011;46836;48.388;16.210;2023-07-24T02:16:58;7.40;;;5.83;;
45684;SDS011;46836;48.388;16.210;2023-07-24T02:19:25;7.10;;;6.40;;
45684;SDS011;46836;48.388;16.210;2023-07-24T02:21:52;7.20;;;5.80;;
45684;SDS011;46836;48.388;16.210;2023-07-24T02:24:19;8.00;;;6.17;;
45684;SDS011;46836;48.388;16.210;2023-07-24T02:26:46;7.70;;;6.07;;
45684;SDS011;46836;48.388;16.210;2023-07-24T02:29:14;6.93;;;5.70;;
45684;SDS011;46836;48.388;16.210;2023-07-24T02:31:41;6.13;;;5.53;;
45684;SDS011;46836;48.388;16.210;2023-07-24T02:34:09;9.70;;;5.40;;
45684;SDS011;46836;48.388;16.210;2023-07-24T02:36:36;7.10;;;5.67;;
45684;SDS011;46836;48.388;16.210;2023-07-24T02:39:04;7.70;;;5.97;;
45684;SDS011;46836;48.388;16.210;2023-07-24T02:41:31;8.27;;;6.23;;
45684;SDS011;46836;48.388;16.210;2023-07-24T02:43:58;7.50;;;6.80;;
45684;SDS011;46836;48.388;16.210;2023-07-24T02:46:25;8.93;;;6.37;;
45684;SDS011;46836;48.388;16.210;2023-07-24T02:48:52;8.43;;;6.10;;
45684;SDS011;46836;48.388;16.210;2023-07-24T02:51:20;7.20;;;6.50;;
45684;SDS011;46836;48.388;16.210;2023-07-24T02:53:47;6.60;;;5.67;;
45684;SDS011;46836;48.388;16.210;2023-07-24T02:56:17;6.80;;;4.90;;
45684;SDS011;46836;48.388;16.210;2023-07-24T02:58:44;7.17;;;6.17;;
45684;SDS011;46836;48.388;16.210;2023-07-24T03:01:11;10.00;;;6.17;;
45684;SDS011;46836;48.388;16.210;2023-07-24T03:03:40;6.43;;;5.83;;
45684;SDS011;46836;48.388;16.210;2023-07-24T03:06:08;7.33;;;5.93;;
45684;SDS011;46836;48.388;16.210;2023-07-24T03:08:35;6.00;;;5.40;;
45684;SDS011;46836;48.388;16.210;2023-07-24T03:11:04;9.10;;;5.40;;
45684;SDS011;46836;48.388;16.210;2023-07-24T03:13:32;7.30;;;6.00;;
45684;SDS011;46836;48.388;16.210;2023-07-24T03:15:59;7.50;;;6.20;;
45684;SDS011;46836;48.388;16.210;2023-07-24T03:18:26;6.90;;;6.30;;
45684;SDS011;46836;48.388;16.210;2023-07-24T03:20:53;7.97;;;6.27;;
45684;SDS011;46836;48.388;16.210;2023-07-24T03:23:20;7.43;;;6.20;;
45684;SDS011;46836;48.388;16.210;2023-07-24T03:25:47;11.53;;;6.90;;
45684;SDS011;46836;48.388;16.210;2023-07-24T03:28:14;6.47;;;5.87;;
45684;SDS011;46836;48.388;16.210;2023-07-24T03:30:41;8.77;;;6.20;;
45684;SDS011;46836;48.388;16.210;2023-07-24T03:33:08;7.10;;;6.23;;
45684;SDS011;46836;48.388;16.210;2023-07-24T03:35:36;6.40;;;5.80;;
45684;SDS011;46836;48.388;16.210;2023-07-24T03:38:03;6.67;;;6.00;;
45684;SDS011;46836;48.388;16.210;2023-07-24T03:40:30;7.80;;;6.50;;
45684;SDS011;46836;48.388;16.210;2023-07-24T03:42:57;7.60;;;5.80;;
45684;SDS011;46836;48.388;16.210;2023-07-24T03:45:24;8.23;;;6.03;;
45684;SDS011;46836;48.388;16.210;2023-07-24T03:47:51;6.60;;;6.00;;
45684;SDS011;46836;48.388;16.210;2023-07-24T03:50:18;7.77;;;5.90;;
45684;SDS011;46836;48.388;16.210;2023-07-24T03:52:45;8.73;;;6.70;;
45684;SDS011;46836;48.388;16.210;2023-07-24T03:55:12;8.40;;;5.80;;
45684;SDS011;46836;48.388;16.210;2023-07-24T03:57:39;5.20;;;4.70;;
45684;SDS011;46836;48.388;16.210;2023-07-24T04:00:06;6.97;;;6.20;;
45684;SDS011;46836;48.388;16.210;2023-07-24T04:02:34;6.83;;;5.93;;
45684;SDS011;46836;48.388;16.210;2023-07-24T04:05:01;6.10;;;5.40;;
45684;SDS011;46836;48.388;16.210;2023-07-24T04:07:29;7.10;;;6.40;;
45684;SDS011;46836;48.388;16.210;2023-07-24T04:09:56;7.10;;;6.27;;
45684;SDS011;46836;48.388;16.210;2023-07-24T04:12:23;11.47;;;6.70;;
45684;SDS011;46836;48.388;16.210;2023-07-24T04:14:50;8.93;;;6.40;;
45684;SDS011;46836;48.388;16.210;2023-07-24T04:17:17;6.50;;;5.80;;
45684;SDS011;46836;48.388;16.210;2023-07-24T04:19:44;9.03;;;5.60;;
45684;SDS011;46836;48.388;16.210;2023-07-24T04:22:11;7.13;;;6.10;;
45684;SDS011;46836;48.388;16.210;2023-07-24T04:24:38;8.33;;;6.60;;
45684;SDS011;46836;48.388;16.210;2023-07-24T04:27:05;6.87;;;6.20;;
45684;SDS011;46836;48.388;16.210;2023-07-24T04:29:32;7.17;;;6.10;;
45684;SDS011;46836;48.388;16.210;2023-07-24T04:31:59;10.43;;;5.50;;
45684;SDS011;46836;48.388;16.210;2023-07-24T04:34:27;7.67;;;5.67;;
45684;SDS011;46836;48.388;16.210;2023-07-24T04:36:54;8.83;;;6.20;;
45684;SDS011;46836;48.388;16.210;2023-07-24T04:39:21;8.03;;;5.73;;
45684;SDS011;46836;48.388;16.210;2023-07-24T04:41:48;7.27;;;5.40;;
45684;SDS011;46836;48.388;16.210;2023-07-24T04:44:15;8.13;;;6.37;;
45684;SDS011;46836;48.388;16.210;2023-07-24T04:46:42;12.50;;;5.53;;
45684;SDS011;46836;48.388;16.210;2023-07-24T04:49:09;8.30;;;6.50;;
45684;SDS011;46836;48.388;16.210;2023-07-24T04:51:36;6.87;;;6.17;;
45684;SDS011;46836;48.388;16.210;2023-07-24T04:54:03;7.63;;;6.83;;
45684;SDS011;46836;48.388;16.210;2023-07-24T04:56:30;6.60;;;5.90;;
45684;SDS011;46836;48.388;16.210;2023-07-24T04:58:58;14.00;;;7.10;;
45684;SDS011;46836;48.388;16.210;2023-07-24T05:01:25;9.97;;;6.40;;
45684;SDS011;46836;48.388;16.210;2023-07-24T05:03:52;12.63;;;7.20;;
45684;SDS011;46836;48.388;16.210;2023-07-24T05:06:19;6.33;;;5.73;;
45684;SDS011;46836;48.388;16.210;2023-07-24T05:08:46;8.10;;;7.30;;
45684;SDS011;46836;48.388;16.210;2023-07-24T05:11:13;11.43;;;7.50;;
45684;SDS011;46836;48.388;16.210;2023-07-24T05:13:40;7.13;;;6.03;;
45684;SDS011;46836;48.388;16.210;2023-07-24T05:16:07;12.00;;;7.20;;
45684;SDS011;46836;48.388;16.210;2023-07-24T05:18:34;8.70;;;7.37;;
45684;SDS011;46836;48.388;16.210;2023-07-24T05:21:04;10.40;;;7.23;;
45684;SDS011;46836;48.388;16.210;2023-07-24T05:23:31;8.60;;;7.53;;
45684;SDS011;46836;48.388;16.210;2023-07-24T05:25:58;8.67;;;7.77;;
45684;SDS011;46836;48.388;16.210;2023-07-24T05:28:26;8.60;;;7.80;;
45684;SDS011;46836;48.388;16.210;2023-07-24T05:30:54;9.27;;;8.23;;
45684;SDS011;46836;48.388;16.210;2023-07-24T05:33:22;8.73;;;7.10;;
45684;SDS011;46836;48.388;16.210;2023-07-24T05:35:49;8.07;;;7.23;;
45684;SDS011;46836;48.388;16.210;2023-07-24T05:38:16;11.13;;;7.30;;
45684;SDS011;46836;48.388;16.210;2023-07-24T05:40:43;11.47;;;8.90;;
45684;SDS011;46836;48.388;16.210;2023-07-24T05:43:10;8.80;;;6.17;;
45684;SDS011;46836;48.388;16.210;2023-07-24T05:45:38;9.40;;;7.63;;
45684;SDS011;46836;48.388;16.210;2023-07-24T05:48:05;12.90;;;7.10;;
45684;SDS011;46836;48.388;16.210;2023-07-24T05:50:34;9.20;;;7.17;;
45684;SDS011;46836;48.388;16.210;2023-07-24T05:53:01;9.20;;;7.90;;
45684;SDS011;46836;48.388;16.210;2023-07-24T05:55:28;10.87;;;7.10;;
45684;SDS011;46836;48.388;16.210;2023-07-24T05:57:55;8.57;;;7.07;;
45684;SDS011;46836;48.388;16.210;2023-07-24T06:00:22;9.33;;;8.10;;
45684;SDS011;46836;48.388;16.210;2023-07-24T06:02:49;9.70;;;7.00;;
45684;SDS011;46836;48.388;16.210;2023-07-24T06:05:16;8.93;;;7.30;;
45684;SDS011;46836;48.388;16.210;2023-07-24T06:07:43;9.50;;;7.30;;
45684;SDS011;46836;48.388;16.210;2023-07-24T06:10:10;9.73;;;7.73;;
45684;SDS011;46836;48.388;16.210;2023-07-24T06:12:37;9.80;;;7.60;;
45684;SDS011;46836;48.388;16.210;2023-07-24T06:15:05;8.43;;;7.57;;
45684;SDS011;46836;48.388;16.210;2023-07-24T06:17:32;12.23;;;8.27;;
45684;SDS011;46836;48.388;16.210;2023-07-24T06:20:00;12.97;;;7.93;;
45684;SDS011;46836;48.388;16.210;2023-07-24T06:22:27;12.20;;;8.73;;
45684;SDS011;46836;48.388;16.210;2023-07-24T06:24:54;7.63;;;6.83;;
45684;SDS011;46836;48.388;16.210;2023-07-24T06:27:21;11.77;;;8.53;;
45684;SDS011;46836;48.388;16.210;2023-07-24T06:29:48;12.13;;;8.70;;
45684;SDS011;46836;48.388;16.210;2023-07-24T06:32:20;8.70;;;7.70;;
45684;SDS011;46836;48.388;16.210;2023-07-24T06:34:48;8.70;;;7.80;;
45684;SDS011;46836;48.388;16.210;2023-07-24T06:37:15;10.10;;;8.00;;
45684;SDS011;46836;48.388;16.210;2023-07-24T06:39:48;8.73;;;7.83;;
45684;SDS011;46836;48.388;16.210;2023-07-24T06:42:15;9.67;;;6.80;;
45684;SDS011;46836;48.388;16.210;2023-07-24T06:44:42;10.67;;;8.30;;
45684;SDS011;46836;48.388;16.210;2023-07-24T06:47:09;14.60;;;8.83;;
45684;SDS011;46836;48.388;16.210;2023-07-24T06:49:36;9.40;;;8.40;;
45684;SDS011;46836;48.388;16.210;2023-07-24T06:52:03;10.57;;;8.33;;
45684;SDS011;46836;48.388;16.210;2023-07-24T06:54:30;8.03;;;7.23;;
45684;SDS011;46836;48.388;16.210;2023-07-24T06:56:57;9.83;;;8.37;;
45684;SDS011;46836;48.388;16.210;2023-07-24T06:59:24;10.17;;;9.17;;
45684;SDS011;46836;48.388;16.210;2023-07-24T07:01:52;14.10;;;8.80;;
45684;SDS011;46836;48.388;16.210;2023-07-24T07:04:19;9.67;;;8.63;;
45684;SDS011;46836;48.388;16.210;2023-07-24T07:06:46;9.43;;;7.70;;
45684;SDS011;46836;48.388;16.210;2023-07-24T07:09:14;11.53;;;8.00;;
45684;SDS011;46836;48.388;16.210;2023-07-24T07:11:41;9.70;;;8.27;;
45684;SDS011;46836;48.388;16.210;2023-07-24T07:14:10;8.80;;;7.90;;
45684;SDS011;46836;48.388;16.210;2023-07-24T07:16:37;10.60;;;8.47;;
45684;SDS011;46836;48.388;16.210;2023-07-24T07:19:04;11.23;;;8.30;;
45684;SDS011;46836;48.388;16.210;2023-07-24T07:21:31;11.83;;;8.63;;
45684;SDS011;46836;48.388;16.210;2023-07-24T07:23:58;8.83;;;7.40;;
45684;SDS011;46836;48.388;16.210;2023-07-24T07:26:25;12.93;;;8.73;;
45684;SDS011;46836;48.388;16.210;2023-07-24T07:28:53;8.10;;;7.30;;
45684;SDS011;46836;48.388;16.210;2023-07-24T07:31:21;10.43;;;8.13;;
45684;SDS011;46836;48.388;16.210;2023-07-24T07:33:48;9.70;;;7.80;;
45684;SDS011;46836;48.388;16.210;2023-07-24T07:36:15;9.20;;;8.30;;
45684;SDS011;46836;48.388;16.210;2023-07-24T07:38:42;8.77;;;7.23;;
45684;SDS011;46836;48.388;16.210;2023-07-24T07:41:09;14.80;;;8.00;;
45684;SDS011;46836;48.388;16.210;2023-07-24T07:43:36;9.63;;;7.80;;
45684;SDS011;46836;48.388;16.210;2023-07-24T07:46:04;8.47;;;7.60;;
45684;SDS011;46836;48.388;16.210;2023-07-24T07:48:31;9.30;;;8.40;;
45684;SDS011;46836;48.388;16.210;2023-07-24T07:50:59;11.70;;;7.90;;
45684;SDS011;46836;48.388;16.210;2023-07-24T07:53:26;8.97;;;7.87;;
45684;SDS011;46836;48.388;16.210;2023-07-24T07:55:56;8.43;;;7.53;;
45684;SDS011;46836;48.388;16.210;2023-07-24T07:58:24;12.10;;;7.30;;
45684;SDS011;46836;48.388;16.210;2023-07-24T08:00:51;14.30;;;8.90;;
45684;SDS011;46836;48.388;16.210;2023-07-24T08:03:18;9.27;;;7.97;;
45684;SDS011;46836;48.388;16.210;2023-07-24T08:05:45;9.93;;;8.00;;
45684;SDS011;46836;48.388;16.210;2023-07-24T08:08:12;12.03;;;8.43;;
45684;SDS011;46836;48.388;16.210;2023-07-24T08:10:39;15.03;;;8.43;;
45684;SDS011;46836;48.388;16.210;2023-07-24T08:13:06;18.40;;;8.77;;
45684;SDS011;46836;48.388;16.210;2023-07-24T08:15:36;9.93;;;8.60;;
45684;SDS011;46836;48.388;16.210;2023-07-24T08:18:04;8.80;;;7.20;;
45684;SDS011;46836;48.388;16.210;2023-07-24T08:20:32;10.33;;;7.67;;
45684;SDS011;46836;48.388;16.210;2023-07-24T08:23:02;12.30;;;8.70;;
45684;SDS011;46836;48.388;16.210;2023-07-24T08:25:29;10.40;;;8.57;;
45684;SDS011;46836;48.388;16.210;2023-07-24T08:27:56;11.43;;;9.00;;
45684;SDS011;46836;48.388;16.210;2023-07-24T08:30:31;15.67;;;8.00;;
45684;SDS011;46836;48.388;16.210;2023-07-24T08:33:00;10.57;;;8.63;;
45684;SDS011;46836;48.388;16.210;2023-07-24T08:35:27;11.90;;;8.13;;
45684;SDS011;46836;48.388;16.210;2023-07-24T08:37:54;10.73;;;8.50;;
45684;SDS011;46836;48.388;16.210;2023-07-24T08:40:21;13.23;;;9.30;;
45684;SDS011;46836;48.388;16.210;2023-07-24T08:42:49;15.63;;;9.03;;
45684;SDS011;46836;48.388;16.210;2023-07-24T08:45:19;12.23;;;9.30;;
45684;SDS011;46836;48.388;16.210;2023-07-24T08:47:47;13.33;;;9.30;;
45684;SDS011;46836;48.388;16.210;2023-07-24T08:50:16;11.17;;;9.03;;
45684;SDS011;46836;48.388;16.210;2023-07-24T08:52:45;11.97;;;9.53;;
45684;SDS011;46836;48.388;16.210;2023-07-24T08:55:13;10.67;;;8.70;;
45684;SDS011;46836;48.388;16.210;2023-07-24T08:57:41;13.47;;;10.00;;
45684;SDS011;46836;48.388;16.210;2023-07-24T09:00:08;9.70;;;7.90;;
45684;SDS011;46836;48.388;16.210;2023-07-24T09:02:36;10.70;;;9.47;;
45684;SDS011;46836;48.388;16.210;2023-07-24T09:05:03;13.90;;;8.80;;
45684;SDS011;46836;48.388;16.210;2023-07-24T09:07:32;10.33;;;7.83;;
45684;SDS011;46836;48.388;16.210;2023-07-24T09:09:59;10.00;;;8.70;;
45684;SDS011;46836;48.388;16.210;2023-07-24T09:12:26;11.77;;;8.67;;
45684;SDS011;46836;48.388;16.210;2023-07-24T09:15:05;13.63;;;9.43;;
45684;SDS011;46836;48.388;16.210;2023-07-24T09:17:33;9.93;;;8.17;;
45684;SDS011;46836;48.388;16.210;2023-07-24T09:20:01;11.00;;;8.90;;
45684;SDS011;46836;48.388;16.210;2023-07-24T09:22:31;9.70;;;8.70;;
45684;SDS011;46836;48.388;16.210;2023-07-24T09:25:00;14.67;;;9.30;;
45684;SDS011;46836;48.388;16.210;2023-07-24T09:27:30;9.93;;;8.30;;
45684;SDS011;46836;48.388;16.210;2023-07-24T09:29:59;11.67;;;9.70;;
45684;SDS011;46836;48.388;16.210;2023-07-24T09:32:26;9.77;;;8.87;;
45684;SDS011;46836;48.388;16.210;2023-07-24T09:34:55;12.83;;;9.27;;
45684;SDS011;46836;48.388;16.210;2023-07-24T09:37:33;13.73;;;9.90;;
45684;SDS011;46836;48.388;16.210;2023-07-24T09:40:04;10.87;;;9.00;;
45684;SDS011;46836;48.388;16.210;2023-07-24T09:42:32;11.20;;;9.33;;
45684;SDS011;46836;48.388;16.210;2023-07-24T09:45:00;10.13;;;9.07;;
45684;SDS011;46836;48.388;16.210;2023-07-24T09:47:29;10.70;;;8.63;;
45684;SDS011;46836;48.388;16.210;2023-07-24T09:50:17;13.20;;;8.20;;
45684;SDS011;46836;48.388;16.210;2023-07-24T09:52:45;10.23;;;9.10;;
45684;SDS011;46836;48.388;16.210;2023-07-24T09:55:25;11.33;;;9.27;;
45684;SDS011;46836;48.388;16.210;2023-07-24T09:58:00;15.93;;;8.80;;
45684;SDS011;46836;48.388;16.210;2023-07-24T10:00:28;11.63;;;8.20;;
45684;SDS011;46836;48.388;16.210;2023-07-24T10:02:58;10.50;;;8.60;;
45684;SDS011;46836;48.388;16.210;2023-07-24T10:05:26;10.37;;;9.37;;
45684;SDS011;46836;48.388;16.210;2023-07-24T10:07:54;9.60;;;8.70;;
45684;SDS011;46836;48.388;16.210;2023-07-24T10:10:22;10.33;;;9.23;;
45684;SDS011;46836;48.388;16.210;2023-07-24T10:12:51;20.73;;;9.90;;
45684;SDS011;46836;48.388;16.210;2023-07-24T10:15:18;10.60;;;9.07;;
45684;SDS011;46836;48.388;16.210;2023-07-24T10:17:46;9.63;;;8.40;;
45684;SDS011;46836;48.388;16.210;2023-07-24T10:20:15;11.00;;;9.27;;
45684;SDS011;46836;48.388;16.210;2023-07-24T10:22:44;11.27;;;9.20;;
45684;SDS011;46836;48.388;16.210;2023-07-24T10:25:11;13.60;;;10.97;;
45684;SDS011;46836;48.388;16.210;2023-07-24T10:27:42;11.20;;;9.07;;
45684;SDS011;46836;48.388;16.210;2023-07-24T10:30:11;10.43;;;8.87;;
45684;SDS011;46836;48.388;16.210;2023-07-24T10:32:45;13.60;;;8.50;;
45684;SDS011;46836;48.388;16.210;2023-07-24T10:35:16;9.63;;;8.63;;
45684;SDS011;46836;48.388;16.210;2023-07-24T10:37:44;10.70;;;8.23;;
45684;SDS011;46836;48.388;16.210;2023-07-24T10:40:20;13.73;;;7.70;;
45684;SDS011;46836;48.388;16.210;2023-07-24T10:42:58;9.17;;;8.27;;
45684;SDS011;46836;48.388;16.210;2023-07-24T10:45:26;11.80;;;8.00;;
45684;SDS011;46836;48.388;16.210;2023-07-24T10:47:53;8.80;;;7.90;;
45684;SDS011;46836;48.388;16.210;2023-07-24T10:50:20;9.93;;;8.40;;
45684;SDS011;46836;48.388;16.210;2023-07-24T10:52:47;10.30;;;9.20;;
45684;SDS011;46836;48.388;16.210;2023-07-24T10:55:14;9.30;;;8.40;;
45684;SDS011;46836;48.388;16.210;2023-07-24T10:57:41;9.40;;;8.40;;
45684;SDS011;46836;48.388;16.210;2023-07-24T11:00:09;11.63;;;7.87;;
45684;SDS011;46836;48.388;16.210;2023-07-24T11:02:37;8.73;;;7.83;;
45684;SDS011;46836;48.388;16.210;2023-07-24T11:05:04;8.97;;;8.13;;
45684;SDS011;46836;48.388;16.210;2023-07-24T11:07:33;10.00;;;8.10;;
45684;SDS011;46836;48.388;16.210;2023-07-24T11:10:01;8.20;;;7.40;;
45684;SDS011;46836;48.388;16.210;2023-07-24T11:12:28;10.30;;;7.93;;
45684;SDS011;46836;48.388;16.210;2023-07-24T11:14:58;9.33;;;7.50;;
45684;SDS011;46836;48.388;16.210;2023-07-24T11:17:35;10.03;;;8.20;;
45684;SDS011;46836;48.388;16.210;2023-07-24T11:20:10;13.40;;;8.10;;
45684;SDS011;46836;48.388;16.210;2023-07-24T11:22:42;8.47;;;7.67;;
45684;SDS011;46836;48.388;16.210;2023-07-24T11:25:10;11.30;;;8.07;;
45684;SDS011;46836;48.388;16.210;2023-07-24T11:27:41;9.07;;;8.17;;
45684;SDS011;46836;48.388;16.210;2023-07-24T11:30:11;9.17;;;7.40;;
45684;SDS011;46836;48.388;16.210;2023-07-24T11:32:40;10.47;;;7.63;;
45684;SDS011;46836;48.388;16.210;2023-07-24T11:35:08;9.47;;;8.10;;
45684;SDS011;46836;48.388;16.210;2023-07-24T11:37:36;8.17;;;7.37;;
45684;SDS011;46836;48.388;16.210;2023-07-24T11:40:04;13.33;;;8.60;;
45684;SDS011;46836;48.388;16.210;2023-07-24T11:42:42;9.50;;;8.53;;
45684;SDS011;46836;48.388;16.210;2023-07-24T11:45:10;9.37;;;7.53;;
45684;SDS011;46836;48.388;16.210;2023-07-24T11:47:41;9.40;;;8.40;;
45684;SDS011;46836;48.388;16.210;2023-07-24T11:50:09;8.23;;;7.40;;
45684;SDS011;46836;48.388;16.210;2023-07-24T11:52:46;9.00;;;7.77;;
45684;SDS011;46836;48.388;16.210;2023-07-24T11:55:18;11.57;;;8.17;;
45684;SDS011;46836;48.388;16.210;2023-07-24T11:57:56;11.00;;;8.03;;
45684;SDS011;46836;48.388;16.210;2023-07-24T12:00:25;12.10;;;8.70;;
45684;SDS011;46836;48.388;16.210;2023-07-24T12:02:52;9.90;;;8.67;;
45684;SDS011;46836;48.388;16.210;2023-07-24T12:05:20;9.10;;;8.10;;
45684;SDS011;46836;48.388;16.210;2023-07-24T12:07:48;8.33;;;7.63;;
45684;SDS011;46836;48.388;16.210;2023-07-24T12:10:24;11.63;;;8.57;;
45684;SDS011;46836;48.388;16.210;2023-07-24T12:12:54;10.40;;;8.33;;
45684;SDS011;46836;48.388;16.210;2023-07-24T12:15:25;8.60;;;7.40;;
45684;SDS011;46836;48.388;16.210;2023-07-24T12:17:53;9.00;;;8.20;;
45684;SDS011;46836;48.388;16.210;2023-07-24T12:20:21;9.70;;;7.67;;
45684;SDS011;46836;48.388;16.210;2023-07-24T12:22:48;10.30;;;7.83;;
45684;SDS011;46836;48.388;16.210;2023-07-24T12:25:15;10.40;;;8.43;;
45684;SDS011;46836;48.388;16.210;2023-07-24T12:27:42;13.63;;;8.70;;
45684;SDS011;46836;48.388;16.210;2023-07-24T12:30:09;9.57;;;8.40;;
45684;SDS011;46836;48.388;16.210;2023-07-24T12:32:37;8.57;;;7.67;;
45684;SDS011;46836;48.388;16.210;2023-07-24T12:35:04;9.77;;;8.77;;
45684;SDS011;46836;48.388;16.210;2023-07-24T12:37:32;9.23;;;8.23;;
45684;SDS011;46836;48.388;16.210;2023-07-24T12:39:59;10.83;;;8.20;;
45684;SDS011;46836;48.388;16.210;2023-07-24T12:42:26;9.63;;;8.20;;
45684;SDS011;46836;48.388;16.210;2023-07-24T12:44:53;9.93;;;7.60;;
45684;SDS011;46836;48.388;16.210;2023-07-24T12:47:24;9.30;;;7.60;;
45684;SDS011;46836;48.388;16.210;2023-07-24T12:49:51;9.37;;;8.50;;
45684;SDS011;46836;48.388;16.210;2023-07-24T12:52:22;10.40;;;8.17;;
45684;SDS011;46836;48.388;16.210;2023-07-24T12:54:49;12.50;;;8.47;;
45684;SDS011;46836;48.388;16.210;2023-07-24T12:57:27;10.10;;;9.10;;
45684;SDS011;46836;48.388;16.210;2023-07-24T12:59:54;9.33;;;8.03;;
45684;SDS011;46836;48.388;16.210;2023-07-24T13:02:21;10.10;;;9.20;;
45684;SDS011;46836;48.388;16.210;2023-07-24T13:04:48;11.67;;;9.20;;
45684;SDS011;46836;48.388;16.210;2023-07-24T13:07:15;12.77;;;9.50;;
45684;SDS011;46836;48.388;16.210;2023-07-24T13:09:42;11.60;;;8.73;;
45684;SDS011;46836;48.388;16.210;2023-07-24T13:12:10;11.00;;;9.30;;
45684;SDS011;46836;48.388;16.210;2023-07-24T13:14:38;15.03;;;9.20;;
45684;SDS011;46836;48.388;16.210;2023-07-24T13:17:08;10.57;;;8.57;;
45684;SDS011;46836;48.388;16.210;2023-07-24T13:19:36;9.40;;;8.40;;
45684;SDS011;46836;48.388;16.210;2023-07-24T13:22:03;10.40;;;8.73;;
45684;SDS011;46836;48.388;16.210;2023-07-24T13:24:32;14.37;;;9.60;;
45684;SDS011;46836;48.388;16.210;2023-07-24T13:26:59;12.30;;;8.10;;
45684;SDS011;46836;48.388;16.210;2023-07-24T13:29:27;12.27;;;9.53;;
45684;SDS011;46836;48.388;16.210;2023-07-24T13:31:56;11.53;;;9.30;;
45684;SDS011;46836;48.388;16.210;2023-07-24T13:34:23;10.23;;;8.90;;
45684;SDS011;46836;48.388;16.210;2023-07-24T13:36:51;10.80;;;9.00;;
45684;SDS011;46836;48.388;16.210;2023-07-24T13:39:19;13.80;;;9.20;;
45684;SDS011;46836;48.388;16.210;2023-07-24T13:41:46;14.37;;;9.90;;
45684;SDS011;46836;48.388;16.210;2023-07-24T13:44:14;10.03;;;7.97;;
45684;SDS011;46836;48.388;16.210;2023-07-24T13:46:41;10.63;;;9.43;;
45684;SDS011;46836;48.388;16.210;2023-07-24T13:49:08;10.50;;;9.37;;
45684;SDS011;46836;48.388;16.210;2023-07-24T13:51:35;15.40;;;9.80;;
45684;SDS011;46836;48.388;16.210;2023-07-24T13:54:02;13.83;;;9.13;;
45684;SDS011;46836;48.388;16.210;2023-07-24T13:56:29;10.83;;;9.10;;
45684;SDS011;46836;48.388;16.210;2023-07-24T13:59:00;13.37;;;9.67;;
45684;SDS011;46836;48.388;16.210;2023-07-24T14:01:28;10.77;;;9.40;;
45684;SDS011;46836;48.388;16.210;2023-07-24T14:03:56;15.00;;;9.43;;
45684;SDS011;46836;48.388;16.210;2023-07-24T14:06:23;13.23;;;8.97;;
45684;SDS011;46836;48.388;16.210;2023-07-24T14:08:50;10.73;;;9.73;;
45684;SDS011;46836;48.388;16.210;2023-07-24T14:11:17;11.70;;;10.03;;
45684;SDS011;46836;48.388;16.210;2023-07-24T14:13:44;11.57;;;10.13;;
45684;SDS011;46836;48.388;16.210;2023-07-24T14:16:13;11.67;;;10.47;;
45684;SDS011;46836;48.388;16.210;2023-07-24T14:18:40;11.77;;;10.57;;
45684;SDS011;46836;48.388;16.210;2023-07-24T14:21:07;12.57;;;9.37;;
45684;SDS011;46836;48.388;16.210;2023-07-24T14:23:35;13.90;;;10.37;;
45684;SDS011;46836;48.388;16.210;2023-07-24T14:26:02;13.00;;;9.93;;
45684;SDS011;46836;48.388;16.210;2023-07-24T14:28:30;11.80;;;10.60;;
45684;SDS011;46836;48.388;16.210;2023-07-24T14:30:57;11.40;;;10.27;;
45684;SDS011;46836;48.388;16.210;2023-07-24T14:33:24;13.00;;;10.67;;
45684;SDS011;46836;48.388;16.210;2023-07-24T14:35:52;12.03;;;10.63;;
45684;SDS011;46836;48.388;16.210;2023-07-24T14:38:21;11.53;;;10.43;;